createdAt,value
2023-03-20T00:02:22.135Z,77.10
2023-03-20T00:04:51.181Z,76.10
2023-03-20T00:07:19.600Z,89.10
2023-03-20T00:09:48.802Z,79.00
2023-03-20T00:12:24.256Z,77.90
2023-03-20T00:14:53.163Z,78.40
2023-03-20T00:17:21.717Z,78.20
2023-03-20T00:19:50.592Z,77.80
2023-03-20T00:22:19.077Z,69.40
2023-03-20T00:24:47.873Z,81.00
2023-03-20T00:27:18.003Z,77.80
2023-03-20T00:29:46.778Z,75.20
2023-03-20T00:32:15.868Z,77.00
2023-03-20T00:34:44.567Z,79.70
2023-03-20T00:37:14.773Z,81.80
2023-03-20T00:39:43.367Z,75.80
2023-03-20T00:42:21.341Z,79.40
2023-03-20T00:44:54.650Z,69.00
2023-03-20T00:47:26.018Z,81.70
2023-03-20T00:49:56.177Z,73.30
2023-03-20T00:52:25.184Z,79.70
2023-03-20T00:54:53.736Z,81.70
2023-03-20T00:57:29.555Z,75.10
2023-03-20T01:00:05.207Z,75.20
2023-03-20T01:02:34.734Z,72.10
2023-03-20T01:05:05.761Z,80.50
2023-03-20T01:07:34.151Z,74.20
2023-03-20T01:10:05.991Z,84.70
2023-03-20T01:12:34.384Z,78.00
2023-03-20T01:15:02.655Z,81.40
2023-03-20T01:17:31.345Z,83.00
2023-03-20T01:19:59.741Z,67.70
2023-03-20T01:22:28.105Z,74.00
2023-03-20T01:24:56.373Z,80.50
2023-03-20T01:27:24.752Z,72.40
2023-03-20T01:29:53.399Z,64.20
2023-03-20T01:32:21.820Z,70.70
2023-03-20T01:34:53.169Z,71.70
2023-03-20T01:37:27.630Z,76.80
2023-03-20T01:39:58.139Z,67.60
2023-03-20T01:42:26.595Z,69.80
2023-03-20T01:44:54.940Z,66.40
2023-03-20T01:47:25.111Z,65.70
2023-03-20T01:50:18.974Z,70.50
2023-03-20T01:52:50.920Z,76.20
2023-03-20T01:55:21.318Z,89.20
2023-03-20T01:57:56.503Z,84.40
2023-03-20T02:00:25.190Z,84.10
2023-03-20T02:02:55.001Z,86.20
2023-03-20T02:05:43.931Z,102.60
2023-03-20T02:08:40.195Z,122.80
2023-03-20T02:11:08.884Z,161.60
2023-03-20T02:13:38.182Z,152.10
2023-03-20T02:16:11.330Z,161.50
2023-03-20T02:19:00.441Z,135.00
2023-03-20T02:22:01.278Z,115.50
2023-03-20T02:24:35.804Z,97.60
2023-03-20T02:27:16.776Z,86.40
2023-03-20T02:30:03.690Z,87.90
2023-03-20T02:32:36.114Z,64.10
2023-03-20T02:35:39.172Z,89.00
2023-03-20T02:38:23.721Z,86.00
2023-03-20T02:41:13.376Z,75.20
2023-03-20T02:44:07.893Z,86.30
2023-03-20T02:46:39.045Z,69.10
2023-03-20T02:49:26.249Z,65.50
2023-03-20T02:52:08.558Z,88.30
2023-03-20T02:54:41.339Z,73.30
2023-03-20T02:57:14.779Z,74.60
2023-03-20T03:00:05.536Z,75.00
2023-03-20T03:02:39.631Z,63.20
2023-03-20T03:05:17.325Z,79.10
2023-03-20T03:07:51.010Z,71.90
2023-03-20T03:10:27.427Z,78.30
2023-03-20T03:12:58.982Z,77.90
2023-03-20T03:15:40.837Z,84.50
2023-03-20T03:18:16.610Z,82.10
2023-03-20T03:20:48.346Z,73.90
2023-03-20T03:23:43.382Z,66.70
2023-03-20T03:26:42.484Z,78.10
2023-03-20T03:31:44.721Z,64.30
2023-03-20T03:34:16.418Z,63.30
2023-03-20T03:37:21.463Z,68.60
2023-03-20T03:40:32.649Z,72.90
2023-03-20T03:43:17.321Z,82.40
2023-03-20T03:45:52.862Z,64.70
2023-03-20T03:48:31.375Z,54.30
2023-03-20T03:51:07.455Z,81.10
2023-03-20T03:53:41.549Z,153.20
2023-03-20T03:56:14.084Z,180.90
2023-03-20T03:58:47.210Z,151.40
2023-03-20T04:01:17.971Z,144.00
2023-03-20T04:03:51.308Z,107.30
2023-03-20T04:06:20.553Z,91.50
2023-03-20T04:08:48.925Z,86.60
2023-03-20T04:11:20.744Z,71.00
2023-03-20T04:13:51.564Z,72.00
2023-03-20T04:16:23.551Z,76.10
2023-03-20T04:18:53.704Z,62.80
2023-03-20T04:21:22.801Z,88.90
2023-03-20T04:23:52.818Z,64.40
2023-03-20T04:26:23.759Z,65.00
2023-03-20T04:28:52.246Z,70.60
2023-03-20T04:31:36.200Z,72.90
2023-03-20T04:34:19.024Z,77.10
2023-03-20T04:37:08.696Z,73.50
2023-03-20T04:40:04.317Z,67.20
2023-03-20T04:42:32.675Z,67.50
2023-03-20T04:45:05.772Z,71.70
2023-03-20T04:47:34.145Z,77.10
2023-03-20T04:50:02.527Z,79.10
2023-03-20T04:52:32.029Z,76.00
2023-03-20T04:55:00.522Z,59.60
2023-03-20T04:57:29.098Z,64.00
2023-03-20T04:59:57.192Z,69.70
2023-03-20T05:02:25.956Z,64.30
2023-03-20T05:04:54.572Z,68.70
2023-03-20T05:07:22.921Z,59.80
2023-03-20T05:10:04.816Z,61.70
2023-03-20T05:12:38.419Z,57.80
2023-03-20T05:15:25.636Z,50.80
2023-03-20T05:18:12.448Z,50.10
2023-03-20T05:23:51.809Z,56.70
2023-03-20T05:26:51.212Z,59.40
2023-03-20T05:29:51.947Z,54.70
2023-03-20T05:32:42.206Z,61.60
2023-03-20T05:35:33.796Z,55.20
2023-03-20T05:38:16.481Z,56.30
2023-03-20T05:40:59.421Z,51.70
2023-03-20T05:43:44.164Z,56.80
2023-03-20T05:46:31.351Z,53.70
2023-03-20T05:49:27.419Z,56.00
2023-03-20T05:52:22.918Z,52.00
2023-03-20T05:55:11.478Z,52.20
2023-03-20T05:58:00.152Z,57.80
2023-03-20T06:00:41.522Z,52.90
2023-03-20T06:03:38.984Z,52.40
2023-03-20T06:06:12.478Z,55.40
2023-03-20T06:08:43.304Z,69.30
2023-03-20T06:11:12.008Z,50.00
2023-03-20T06:13:40.481Z,54.40
2023-03-20T06:16:09.726Z,68.30
2023-03-20T06:18:39.461Z,52.30
2023-03-20T06:21:09.628Z,56.00
2023-03-20T06:23:37.996Z,58.00
2023-03-20T06:26:07.154Z,58.20
2023-03-20T06:28:46.427Z,65.20
2023-03-20T06:31:15.194Z,52.70
2023-03-20T06:33:44.612Z,60.20
2023-03-20T06:36:14.128Z,53.30
2023-03-20T06:38:42.399Z,67.00
2023-03-20T06:41:27.734Z,55.30
2023-03-20T06:44:04.047Z,55.30
2023-03-20T06:46:50.150Z,60.10
2023-03-20T06:49:19.018Z,61.30
2023-03-20T06:51:48.424Z,62.90
2023-03-20T06:54:23.406Z,65.40
2023-03-20T06:56:53.171Z,62.80
2023-03-20T06:59:22.820Z,61.40
2023-03-20T07:01:56.858Z,71.90
2023-03-20T07:04:25.884Z,60.40
2023-03-20T07:06:58.563Z,58.00
2023-03-20T07:09:27.273Z,60.80
2023-03-20T07:11:55.536Z,62.00
2023-03-20T07:14:24.321Z,80.10
2023-03-20T07:16:57.091Z,60.60
2023-03-20T07:19:25.694Z,59.90
2023-03-20T07:22:02.100Z,65.50
2023-03-20T07:24:35.023Z,69.50
2023-03-20T07:27:03.328Z,61.70
2023-03-20T07:29:31.903Z,63.20
2023-03-20T07:32:01.183Z,60.00
2023-03-20T07:34:37.057Z,65.60
2023-03-20T07:37:05.947Z,66.10
2023-03-20T07:39:35.553Z,63.60
2023-03-20T07:42:23.908Z,52.30
2023-03-20T07:44:59.170Z,53.00
2023-03-20T07:47:28.362Z,60.30
2023-03-20T07:49:56.714Z,58.40
2023-03-20T07:52:24.993Z,70.50
2023-03-20T07:54:54.397Z,59.10
2023-03-20T07:57:22.980Z,54.90
2023-03-20T07:59:51.459Z,57.20
2023-03-20T08:02:19.633Z,54.80
2023-03-20T08:04:48.320Z,59.50
2023-03-20T08:07:16.912Z,55.40
2023-03-20T08:09:45.800Z,58.90
2023-03-20T08:12:14.548Z,55.60
2023-03-20T08:14:44.400Z,53.10
2023-03-20T08:17:15.493Z,56.80
2023-03-20T08:19:46.035Z,50.70
2023-03-20T08:22:14.148Z,48.00
2023-03-20T08:24:42.319Z,49.60
2023-03-20T08:27:10.813Z,51.20
2023-03-20T08:29:39.287Z,53.00
2023-03-20T08:32:07.769Z,46.90
2023-03-20T08:34:36.052Z,45.60
2023-03-20T08:37:05.352Z,41.70
2023-03-20T08:39:34.543Z,44.50
2023-03-20T08:42:03.363Z,42.90
2023-03-20T08:44:32.225Z,42.80
2023-03-20T08:47:01.012Z,44.10
2023-03-20T08:49:29.406Z,49.10
2023-03-20T08:51:58.184Z,46.10
2023-03-20T08:54:26.965Z,43.70
2023-03-20T08:56:55.885Z,45.10
2023-03-20T08:59:24.232Z,41.50
2023-03-20T09:01:52.431Z,42.60
2023-03-20T09:04:21.309Z,36.60
2023-03-20T09:06:50.394Z,37.60
2023-03-20T09:09:20.419Z,36.00
2023-03-20T09:11:48.896Z,38.10
2023-03-20T09:14:17.682Z,41.00
2023-03-20T09:16:46.374Z,40.40
2023-03-20T09:19:15.567Z,40.90
2023-03-20T09:21:44.166Z,38.00
2023-03-20T09:24:12.689Z,39.50
2023-03-20T09:26:41.222Z,43.50
2023-03-20T09:29:09.603Z,42.30
2023-03-20T09:31:38.022Z,42.70
2023-03-20T09:34:06.565Z,43.30
2023-03-20T09:36:34.938Z,40.50
2023-03-20T09:39:04.456Z,39.60
2023-03-20T09:41:52.975Z,39.20
2023-03-20T09:44:30.657Z,43.30
2023-03-20T09:47:40.239Z,40.60
2023-03-20T09:50:41.712Z,33.70
2023-03-20T09:53:31.272Z,40.00
2023-03-20T09:56:00.427Z,40.50
2023-03-20T09:58:33.976Z,38.40
2023-03-20T10:01:05.805Z,31.40
2023-03-20T10:03:43.223Z,25.20
2023-03-20T10:06:17.085Z,23.10
2023-03-20T10:08:46.536Z,32.50
2023-03-20T10:11:45.939Z,18.10
2023-03-20T10:14:23.429Z,36.70
2023-03-20T10:17:17.646Z,30.40
2023-03-20T10:19:57.875Z,30.70
2023-03-20T10:22:33.110Z,20.50
2023-03-20T10:25:32.280Z,17.70
2023-03-20T10:28:04.454Z,21.70
2023-03-20T10:30:48.135Z,20.20
2023-03-20T10:33:31.857Z,23.90
2023-03-20T10:36:22.178Z,24.60
2023-03-20T10:38:57.456Z,24.00
2023-03-20T10:41:32.385Z,24.60
2023-03-20T10:44:02.058Z,25.40
2023-03-20T10:46:43.454Z,26.20
2023-03-20T10:49:17.686Z,28.80
2023-03-20T10:51:52.726Z,27.40
2023-03-20T10:54:42.141Z,31.30
2023-03-20T10:57:35.199Z,38.60
2023-03-20T11:00:05.486Z,22.90
2023-03-20T11:02:34.012Z,18.20
2023-03-20T11:05:23.583Z,21.50
2023-03-20T11:08:01.589Z,28.30
2023-03-20T11:10:32.710Z,17.80
2023-03-20T11:13:23.230Z,15.10
2023-03-20T11:15:53.905Z,20.40
2023-03-20T11:18:25.825Z,31.60
2023-03-20T11:20:58.209Z,21.80
2023-03-20T11:23:30.779Z,22.20
2023-03-20T11:26:04.062Z,24.10
2023-03-20T11:28:32.249Z,20.10
2023-03-20T11:31:24.944Z,21.90
2023-03-20T11:34:10.072Z,25.00
2023-03-20T11:36:41.389Z,20.10
2023-03-20T11:39:14.821Z,22.60
2023-03-20T11:41:45.752Z,17.30
2023-03-20T11:44:36.459Z,15.70
2023-03-20T11:47:20.403Z,20.20
2023-03-20T11:49:55.167Z,15.80
2023-03-20T11:52:29.713Z,17.60
2023-03-20T11:55:00.385Z,16.30
2023-03-20T11:57:31.429Z,15.70
2023-03-20T12:00:07.622Z,19.80
2023-03-20T12:02:37.441Z,18.00
2023-03-20T12:05:36.603Z,14.30
2023-03-20T12:08:13.893Z,14.90
2023-03-20T12:10:49.436Z,17.70
2023-03-20T12:13:42.811Z,17.90
2023-03-20T12:16:17.122Z,16.20
2023-03-20T12:19:18.265Z,21.20
2023-03-20T12:21:52.567Z,15.40
2023-03-20T12:24:28.135Z,15.30
2023-03-20T12:27:10.136Z,21.00
2023-03-20T12:30:00.959Z,14.60
2023-03-20T12:32:42.914Z,17.80
2023-03-20T12:35:16.789Z,18.80
2023-03-20T12:37:45.064Z,19.40
2023-03-20T12:40:17.495Z,20.90
2023-03-20T12:43:03.670Z,17.20
2023-03-20T12:45:47.429Z,16.10
2023-03-20T12:48:37.423Z,16.00
2023-03-20T12:51:24.745Z,18.80
2023-03-20T12:54:11.755Z,21.10
2023-03-20T12:56:52.224Z,17.50
2023-03-20T12:59:38.929Z,17.20
2023-03-20T13:02:57.603Z,21.10
2023-03-20T13:06:04.581Z,15.90
2023-03-20T13:08:51.795Z,19.10
2023-03-20T13:11:41.476Z,22.00
2023-03-20T13:14:14.659Z,18.80
2023-03-20T13:16:52.039Z,16.00
2023-03-20T13:19:54.530Z,18.60
2023-03-20T13:22:42.364Z,16.60
2023-03-20T13:25:13.304Z,17.00
2023-03-20T13:28:03.084Z,19.90
2023-03-20T13:30:31.164Z,21.90
2023-03-20T13:33:36.498Z,16.80
2023-03-20T13:36:16.984Z,14.20
2023-03-20T13:38:53.742Z,16.80
2023-03-20T13:41:24.490Z,15.80
2023-03-20T13:44:03.683Z,19.20
2023-03-20T13:46:38.274Z,18.10
2023-03-20T13:49:34.058Z,21.10
2023-03-20T13:52:15.704Z,14.00
2023-03-20T13:55:21.581Z,17.90
2023-03-20T13:58:19.581Z,13.40
2023-03-20T14:00:54.146Z,21.00
2023-03-20T14:03:28.669Z,15.60
2023-03-20T14:05:57.433Z,14.60
2023-03-20T14:08:30.506Z,18.40
2023-03-20T14:11:11.276Z,13.10
2023-03-20T14:13:43.061Z,16.90
2023-03-20T14:16:15.892Z,20.00
2023-03-20T14:18:47.606Z,14.90
2023-03-20T14:21:21.294Z,13.50
2023-03-20T14:24:02.760Z,15.10
2023-03-20T14:26:41.986Z,14.80
2023-03-20T14:29:10.168Z,15.80
2023-03-20T14:31:42.408Z,14.40
2023-03-20T14:34:13.710Z,15.40
2023-03-20T14:37:03.402Z,16.00
2023-03-20T14:39:34.503Z,16.80
2023-03-20T14:42:11.589Z,18.40
2023-03-20T14:44:52.358Z,15.00
2023-03-20T14:47:24.962Z,21.20
2023-03-20T14:50:11.338Z,20.40
2023-03-20T14:52:45.571Z,18.70
2023-03-20T14:55:19.776Z,21.50
2023-03-20T14:57:56.690Z,20.90
2023-03-20T15:00:35.993Z,24.70
2023-03-20T15:03:04.267Z,22.00
2023-03-20T15:05:36.287Z,19.30
2023-03-20T15:08:28.769Z,13.30
2023-03-20T15:11:04.242Z,35.70
2023-03-20T15:13:36.029Z,17.60
2023-03-20T15:16:08.444Z,25.20
2023-03-20T15:21:41.453Z,20.20
2023-03-20T15:24:30.944Z,24.00
2023-03-20T15:27:01.783Z,20.60
2023-03-20T15:29:33.167Z,23.20
2023-03-20T15:32:13.950Z,19.40
2023-03-20T15:34:44.728Z,18.70
2023-03-20T15:37:18.357Z,20.90
2023-03-20T15:39:54.046Z,149.30
2023-03-20T15:42:25.755Z,292.70
2023-03-20T15:44:56.874Z,200.20
2023-03-20T15:47:26.368Z,28.00
2023-03-20T15:49:55.893Z,33.00
2023-03-20T15:52:53.214Z,18.50
2023-03-20T15:55:24.937Z,18.50
2023-03-20T15:57:57.283Z,19.00
2023-03-20T16:00:35.564Z,22.80
2023-03-20T16:03:08.028Z,20.20
2023-03-20T16:05:36.646Z,19.10
2023-03-20T16:08:21.708Z,20.70
2023-03-20T16:10:59.574Z,19.80
2023-03-20T16:13:33.155Z,19.30
2023-03-20T16:16:03.557Z,25.70
2023-03-20T16:18:36.797Z,21.90
2023-03-20T16:21:27.850Z,22.30
2023-03-20T16:23:59.094Z,19.60
2023-03-20T16:26:28.101Z,29.20
2023-03-20T16:29:00.405Z,26.30
2023-03-20T16:31:36.249Z,27.40
2023-03-20T16:34:08.716Z,28.80
2023-03-20T16:36:38.885Z,27.50
2023-03-20T16:39:18.143Z,34.40
2023-03-20T16:41:50.517Z,27.90
2023-03-20T16:44:25.041Z,33.90
2023-03-20T16:47:21.475Z,29.80
2023-03-20T16:50:02.571Z,35.30
2023-03-20T16:52:37.406Z,34.50
2023-03-20T16:55:12.198Z,34.10
2023-03-20T16:57:40.691Z,34.30
2023-03-20T17:00:23.810Z,34.00
2023-03-20T17:02:59.955Z,61.80
2023-03-20T17:05:44.238Z,55.90
2023-03-20T17:08:15.086Z,48.10
2023-03-20T17:10:46.375Z,55.80
2023-03-20T17:13:15.408Z,60.30
2023-03-20T17:15:44.841Z,56.80
2023-03-20T17:18:14.629Z,65.30
2023-03-20T17:20:43.004Z,61.80
2023-03-20T17:23:16.643Z,65.70
2023-03-20T17:25:45.000Z,68.80
2023-03-20T17:28:20.851Z,68.30
2023-03-20T17:30:50.683Z,88.20
2023-03-20T17:33:21.201Z,98.50
2023-03-20T17:35:49.799Z,85.60
2023-03-20T17:38:22.243Z,94.10
2023-03-20T17:40:51.981Z,98.40
2023-03-20T17:43:20.335Z,114.20
2023-03-20T17:45:49.036Z,105.90
2023-03-20T17:48:20.909Z,95.50
2023-03-20T17:50:53.253Z,90.10
2023-03-20T17:53:29.013Z,97.80
2023-03-20T17:55:57.997Z,112.80
2023-03-20T17:58:26.280Z,103.50
2023-03-20T18:00:55.631Z,101.00
2023-03-20T18:03:23.762Z,109.80
2023-03-20T18:05:52.048Z,110.80
2023-03-20T18:08:22.299Z,116.60
2023-03-20T18:10:52.534Z,107.70
2023-03-20T18:13:22.905Z,108.70
2023-03-20T18:15:53.811Z,113.70
2023-03-20T18:18:24.120Z,111.70
2023-03-20T18:20:54.933Z,112.90
2023-03-20T18:23:23.486Z,106.50
2023-03-20T18:25:52.059Z,112.60
2023-03-20T18:28:24.644Z,99.60
2023-03-20T18:30:53.046Z,107.30
2023-03-20T18:33:26.830Z,111.30
2023-03-20T18:35:55.059Z,121.90
2023-03-20T18:38:25.033Z,116.40
2023-03-20T18:40:53.300Z,123.00
2023-03-20T18:43:21.684Z,111.20
2023-03-20T18:45:49.985Z,124.80
2023-03-20T18:48:18.343Z,119.10
2023-03-20T18:50:51.104Z,128.90
2023-03-20T18:53:19.817Z,139.20
2023-03-20T18:55:47.978Z,134.90
2023-03-20T18:58:27.622Z,130.50
2023-03-20T19:00:58.198Z,123.60
2023-03-20T19:03:28.764Z,134.00
2023-03-20T19:05:58.598Z,161.30
2023-03-20T19:08:26.871Z,142.00
2023-03-20T19:10:55.206Z,138.30
2023-03-20T19:13:24.960Z,133.00
2023-03-20T19:15:54.828Z,127.80
2023-03-20T19:18:26.169Z,146.30
2023-03-20T19:20:56.647Z,133.40
2023-03-20T19:23:29.041Z,152.30
2023-03-20T19:25:57.299Z,168.60
2023-03-20T19:28:38.815Z,151.60
2023-03-20T19:31:10.023Z,160.70
2023-03-20T19:33:39.313Z,147.30
2023-03-20T19:36:24.382Z,166.30
2023-03-20T19:38:53.364Z,172.30
2023-03-20T19:41:22.039Z,174.10
2023-03-20T19:43:53.501Z,186.70
2023-03-20T19:46:39.822Z,179.80
2023-03-20T19:49:18.601Z,176.10
2023-03-20T19:51:48.892Z,181.10
2023-03-20T19:54:17.811Z,201.40
2023-03-20T19:56:46.260Z,194.70
2023-03-20T19:59:16.700Z,180.40
2023-03-20T20:01:46.275Z,192.70
2023-03-20T20:04:15.487Z,183.80
2023-03-20T20:06:47.229Z,204.80
2023-03-20T20:09:16.355Z,225.00
2023-03-20T20:11:44.525Z,222.70
2023-03-20T20:14:14.963Z,256.60
2023-03-20T20:16:45.683Z,232.60
2023-03-20T20:19:14.559Z,221.10
2023-03-20T20:29:49.227Z,172.50
2023-03-20T20:32:19.246Z,176.60
2023-03-20T20:40:29.397Z,124.90
2023-03-20T20:43:01.896Z,118.40
2023-03-20T20:45:32.110Z,103.40
2023-03-20T20:48:01.919Z,102.80
2023-03-20T20:50:32.760Z,158.10
2023-03-20T20:53:02.618Z,188.50
2023-03-20T20:55:31.203Z,136.30
2023-03-20T20:57:59.490Z,125.90
2023-03-20T21:00:45.323Z,91.90
2023-03-20T21:03:16.466Z,114.00
2023-03-20T21:05:44.821Z,105.40
2023-03-20T21:08:15.337Z,107.50
2023-03-20T21:10:45.217Z,148.20
2023-03-20T21:13:14.637Z,108.20
2023-03-20T21:15:45.756Z,139.90
2023-03-20T21:18:14.679Z,161.10
2023-03-20T21:20:43.074Z,177.70
2023-03-20T21:23:11.867Z,144.40
2023-03-20T21:25:42.164Z,121.20
2023-03-20T21:28:12.930Z,97.70
2023-03-20T21:30:54.659Z,88.90
2023-03-20T21:33:32.902Z,84.60
2023-03-20T21:36:01.401Z,81.50
2023-03-20T21:41:19.044Z,69.60
2023-03-20T21:43:47.833Z,78.20
2023-03-20T22:03:29.041Z,81.20
2023-03-20T22:09:51.764Z,86.50
2023-03-20T22:21:06.237Z,77.80
2023-03-20T22:26:56.687Z,61.80
2023-03-20T22:29:32.686Z,63.10
2023-03-20T22:32:18.650Z,55.40
2023-03-20T22:37:58.456Z,64.70
2023-03-20T22:43:38.402Z,51.70
2023-03-20T22:48:35.690Z,49.10
2023-03-20T22:51:04.894Z,58.70
2023-03-20T22:53:34.321Z,63.20
2023-03-20T22:56:02.563Z,54.00
2023-03-20T22:58:31.046Z,55.30
2023-03-20T23:00:59.367Z,55.50
2023-03-20T23:03:40.943Z,55.10
2023-03-20T23:06:25.488Z,54.20
2023-03-20T23:09:03.144Z,58.00
2023-03-20T23:11:33.909Z,50.70
2023-03-20T23:14:03.794Z,52.20
2023-03-20T23:16:34.276Z,50.90
2023-03-20T23:19:02.742Z,52.00
2023-03-20T23:21:30.999Z,49.50
2023-03-20T23:23:59.276Z,50.20
2023-03-20T23:26:27.964Z,52.30
2023-03-20T23:28:56.249Z,54.20
2023-03-20T23:31:26.273Z,52.00
2023-03-20T23:33:57.204Z,51.10
2023-03-20T23:36:42.448Z,52.00
2023-03-20T23:39:14.331Z,49.20
2023-03-20T23:44:30.843Z,50.00
2023-03-20T23:47:01.386Z,58.20
2023-03-20T23:49:31.405Z,58.10
2023-03-20T23:51:59.785Z,58.00
2023-03-20T23:54:27.858Z,53.40
2023-03-20T23:56:56.233Z,50.10
2023-03-20T23:59:24.611Z,50.70
